createdAt,value
2019-05-10T19:58:09.242Z,47.85
2019-05-10T20:03:16.650Z,49.62
2019-05-10T20:08:24.088Z,50.59
2019-05-10T20:13:31.414Z,51.09
2019-05-10T20:18:38.786Z,51.65
2019-05-10T20:23:46.085Z,51.47
2019-05-10T20:28:53.500Z,52.38
2019-05-10T20:34:00.824Z,52.41
2019-05-10T20:39:09.635Z,55.46
2019-05-10T20:44:18.304Z,53.70
2019-05-10T20:49:26.726Z,53.98
2019-05-10T20:54:34.232Z,50.85
2019-05-10T20:59:41.311Z,50.47
2019-05-10T21:04:48.645Z,50.81
2019-05-10T21:09:55.922Z,51.39
2019-05-10T21:15:03.468Z,51.70
2019-05-10T21:20:11.263Z,51.96
2019-05-10T21:25:18.775Z,52.24
2019-05-10T21:30:26.376Z,52.39
2019-05-10T21:35:33.747Z,52.63
2019-05-10T21:40:41.095Z,53.39
2019-05-10T21:45:48.348Z,52.05
2019-05-10T21:50:55.743Z,52.20
2019-05-10T21:56:03.156Z,52.34
2019-05-10T22:01:10.380Z,51.68
2019-05-10T22:06:17.968Z,52.70
2019-05-10T22:11:25.476Z,52.64
2019-05-10T22:16:33.187Z,52.57
2019-05-10T22:21:40.526Z,52.61
2019-05-10T22:26:47.836Z,52.65
2019-05-10T22:31:55.205Z,52.77
2019-05-10T22:37:02.655Z,52.86
2019-05-10T22:42:09.939Z,52.93
2019-05-10T22:47:17.433Z,53.04
2019-05-10T22:52:24.715Z,53.12
2019-05-10T22:57:32.160Z,53.14
2019-05-10T23:02:39.565Z,53.13
2019-05-10T23:07:46.878Z,53.27
2019-05-10T23:12:54.289Z,53.30
2019-05-10T23:18:01.560Z,53.38
2019-05-10T23:23:08.871Z,53.37
2019-05-10T23:28:16.159Z,53.44
2019-05-10T23:33:23.464Z,53.49
2019-05-10T23:38:30.879Z,53.52
2019-05-10T23:43:38.189Z,53.58
2019-05-10T23:48:45.394Z,53.54
2019-05-10T23:53:52.648Z,53.60
2019-05-10T23:59:00.141Z,53.62
